Time;durP1;ratioP1;P1;durP2;ratioP2;P2;SDS_P1;SDS_P2;PMS_P1;PMS_P2;Temp;Humidity;BMP_temperature;BMP_pressure;BME280_temperature;BME280_humidity;BME280_pressure;Samples;Min_cycle;Max_cycle;Signal;HPM_P1;HPM_P2
2024/04/20 01:21:23;;;;;;;8.18;3.00;;;12.80;48.80;;;;;;5413581;26;20002;-71
2024/04/20 01:23:53;;;;;;;7.28;2.75;;;12.70;48.50;;;;;;5415614;26;20006;-72
2024/04/20 01:26:18;;;;;;;10.55;3.90;;;12.60;48.70;;;;;;5417123;26;19999;-71
2024/04/20 01:28:44;;;;;;;12.18;3.67;;;12.60;49.40;;;;;;5418720;26;19991;-71
2024/04/20 01:31:10;;;;;;;15.85;4.30;;;12.60;50.40;;;;;;5430360;26;20050;-72
2024/04/20 01:33:36;;;;;;;11.48;4.40;;;12.60;50.40;;;;;;5438529;26;20002;-71
2024/04/20 01:36:02;;;;;;;9.90;3.88;;;12.50;50.70;;;;;;5433574;26;20020;-71
2024/04/20 01:38:27;;;;;;;12.10;4.30;;;12.50;50.80;;;;;;5416877;26;20055;-73
2024/04/20 01:40:53;;;;;;;9.65;4.13;;;12.40;51.40;;;;;;5416738;26;20006;-70
2024/04/20 01:43:19;;;;;;;10.43;4.70;;;12.40;51.20;;;;;;5415259;26;20009;-71
2024/04/20 01:45:44;;;;;;;10.10;4.72;;;12.40;51.60;;;;;;5415962;26;20007;-72
2024/04/20 01:48:11;;;;;;;10.93;5.18;;;12.30;52.30;;;;;;5415284;26;20010;-71
2024/04/20 01:50:36;;;;;;;10.40;4.20;;;12.30;52.10;;;;;;5415258;26;19988;-71
2024/04/20 01:53:03;;;;;;;10.15;3.90;;;12.20;52.20;;;;;;5415848;26;20046;-71
2024/04/20 01:55:29;;;;;;;9.23;3.92;;;12.10;52.10;;;;;;5415805;26;20447;-70
2024/04/20 01:57:54;;;;;;;13.35;4.35;;;12.10;52.00;;;;;;5415584;26;20049;-72
2024/04/20 02:00:20;;;;;;;9.40;3.97;;;12.10;52.40;;;;;;5407787;26;20408;-72
2024/04/20 02:02:46;;;;;;;8.13;3.90;;;12.10;52.20;;;;;;5394181;26;20002;-72
2024/04/20 02:05:12;;;;;;;9.98;4.20;;;12.10;52.30;;;;;;5400459;26;20096;-71
2024/04/20 02:07:38;;;;;;;13.07;3.78;;;12.00;52.00;;;;;;5415186;26;20015;-71
2024/04/20 02:10:05;;;;;;;11.20;3.70;;;12.00;52.40;;;;;;5415167;26;20093;-70
2024/04/20 02:12:31;;;;;;;8.20;3.45;;;12.00;52.10;;;;;;5415243;26;20287;-72
2024/04/20 02:14:57;;;;;;;8.63;3.75;;;12.00;52.10;;;;;;5415734;26;19991;-71
2024/04/20 02:17:25;;;;;;;6.97;3.90;;;11.90;51.90;;;;;;5415652;26;20007;-72
2024/04/20 02:19:51;;;;;;;8.70;3.60;;;11.90;52.10;;;;;;5415240;26;20121;-71
2024/04/20 02:22:16;;;;;;;10.35;3.92;;;11.90;52.00;;;;;;5415360;26;20315;-71
2024/04/20 02:24:42;;;;;;;10.98;3.53;;;11.80;52.00;;;;;;5418675;26;20090;-72
2024/04/20 02:27:08;;;;;;;12.32;3.67;;;11.80;52.00;;;;;;5416759;26;20005;-72
2024/04/20 02:29:33;;;;;;;12.25;4.10;;;11.70;52.10;;;;;;5415274;26;20003;-72
2024/04/20 02:31:59;;;;;;;7.28;3.58;;;11.70;52.00;;;;;;5415237;26;20087;-72
2024/04/20 02:34:25;;;;;;;6.63;3.42;;;11.70;52.00;;;;;;5384067;26;19996;-71
2024/04/20 02:37:09;;;;;;;9.40;4.05;;;11.80;52.10;;;;;;5415390;26;20476;-71
2024/04/20 02:39:36;;;;;;;10.45;4.15;;;11.90;52.00;;;;;;5383982;26;19992;-72
2024/04/20 02:42:02;;;;;;;7.65;3.58;;;11.90;51.70;;;;;;5415499;26;20003;-71
2024/04/20 02:44:29;;;;;;;8.00;4.00;;;11.90;51.80;;;;;;5415232;26;20081;-71
2024/04/20 02:46:54;;;;;;;9.52;3.92;;;11.90;51.60;;;;;;5414729;26;20370;-71
2024/04/20 02:49:20;;;;;;;10.75;3.95;;;11.90;51.50;;;;;;5414548;26;20010;-71
2024/04/20 02:51:46;;;;;;;8.50;3.47;;;11.90;51.80;;;;;;5414916;26;20069;-71
2024/04/20 02:54:15;;;;;;;7.68;3.63;;;11.90;51.80;;;;;;5414811;26;20041;-71
2024/04/20 02:56:41;;;;;;;11.77;3.97;;;11.90;51.80;;;;;;5415494;26;20069;-73
2024/04/20 02:59:07;;;;;;;10.52;4.03;;;12.00;51.60;;;;;;5414862;26;20007;-72
2024/04/20 03:01:33;;;;;;;9.27;3.55;;;11.90;51.60;;;;;;5415040;26;19999;-72
2024/04/20 03:03:58;;;;;;;7.32;3.50;;;11.90;51.70;;;;;;5414968;26;19999;-72
2024/04/20 03:06:24;;;;;;;7.32;3.40;;;11.90;51.70;;;;;;5414227;26;20000;-72
2024/04/20 03:08:50;;;;;;;6.47;3.63;;;11.90;51.60;;;;;;5414916;26;20000;-72
2024/04/20 03:11:16;;;;;;;8.52;3.17;;;11.90;51.60;;;;;;5414328;26;20011;-72
2024/04/20 03:13:42;;;;;;;7.45;3.40;;;11.90;51.60;;;;;;5383676;26;19999;-71
2024/04/20 03:16:07;;;;;;;8.75;3.58;;;11.90;51.60;;;;;;5415384;26;20417;-71
2024/04/20 03:18:35;;;;;;;8.38;3.78;;;11.90;51.60;;;;;;5382820;26;20010;-72
2024/04/20 03:21:01;;;;;;;8.70;3.60;;;11.90;51.70;;;;;;5413827;26;20038;-72
2024/04/20 03:23:30;;;;;;;9.10;4.18;;;12.00;51.80;;;;;;5414391;26;20011;-72
2024/04/20 03:25:55;;;;;;;11.25;3.95;;;11.90;51.70;;;;;;5413715;26;20150;-71
2024/04/20 03:28:21;;;;;;;13.75;4.00;;;11.90;51.90;;;;;;5413902;26;20006;-72
2024/04/20 03:30:46;;;;;;;10.13;4.03;;;11.90;52.10;;;;;;5413913;26;19995;-71
2024/04/20 03:33:16;;;;;;;9.63;4.00;;;11.80;52.30;;;;;;5414463;26;20000;-71
2024/04/20 03:35:42;;;;;;;11.93;3.83;;;11.80;52.70;;;;;;5413889;26;20034;-71
2024/04/20 03:38:07;;;;;;;8.75;4.18;;;11.80;52.80;;;;;;5414325;26;20495;-71
2024/04/20 03:40:33;;;;;;;7.32;3.20;;;11.80;52.80;;;;;;5414386;26;20011;-72
2024/04/20 03:42:59;;;;;;;8.38;3.72;;;11.80;52.80;;;;;;5414458;26;20003;-73
2024/04/20 03:45:24;;;;;;;17.88;4.00;;;11.70;52.70;;;;;;5414058;26;19999;-72
2024/04/20 03:47:50;;;;;;;9.27;3.88;;;11.70;52.50;;;;;;5417297;26;20031;-72
2024/04/20 03:50:16;;;;;;;12.40;4.60;;;11.70;52.70;;;;;;5417719;26;20420;-72
2024/04/20 03:52:45;;;;;;;8.23;3.90;;;11.70;52.80;;;;;;5417847;26;20094;-72
2024/04/20 03:55:10;;;;;;;9.48;4.03;;;11.70;52.80;;;;;;5388235;26;19992;-72
2024/04/20 03:57:36;;;;;;;8.20;3.50;;;11.60;53.20;;;;;;5418010;26;20011;-72
2024/04/20 04:00:02;;;;;;;15.30;3.78;;;11.60;53.00;;;;;;5436266;26;20023;-71
2024/04/20 04:02:27;;;;;;;10.52;4.05;;;11.50;53.20;;;;;;5428354;26;20060;-70
2024/04/20 04:04:53;;;;;;;8.57;3.50;;;11.50;53.20;;;;;;5382467;26;19997;-72
2024/04/20 04:07:19;;;;;;;7.13;3.60;;;11.40;52.70;;;;;;5417867;26;20352;-71
2024/04/20 04:09:45;;;;;;;9.38;3.67;;;11.40;52.70;;;;;;5418471;26;20011;-72
2024/04/20 04:12:11;;;;;;;11.98;3.40;;;11.40;53.10;;;;;;5418579;26;20000;-71
2024/04/20 04:14:37;;;;;;;13.30;3.50;;;11.40;53.00;;;;;;5419318;26;20444;-68
2024/04/20 04:17:03;;;;;;;7.10;2.95;;;11.30;53.10;;;;;;5386882;26;20006;-72
2024/04/20 04:19:29;;;;;;;9.05;3.40;;;11.20;53.10;;;;;;5425467;26;19995;-72
2024/04/20 04:21:54;;;;;;;11.05;3.63;;;11.10;53.20;;;;;;5453410;26;20315;-71
2024/04/20 04:24:20;;;;;;;7.20;3.30;;;11.00;53.30;;;;;;5453011;26;19995;-70
2024/04/20 04:26:46;;;;;;;6.60;3.28;;;11.10;53.30;;;;;;5453101;26;19994;-71
2024/04/20 04:29:12;;;;;;;8.43;3.10;;;11.20;52.80;;;;;;5453117;26;20009;-72
2024/04/20 04:31:39;;;;;;;6.97;3.20;;;11.30;52.80;;;;;;5453041;26;19999;-72
2024/04/20 04:34:04;;;;;;;7.30;2.97;;;11.40;52.80;;;;;;5454127;26;19994;-73
2024/04/20 04:36:30;;;;;;;8.82;3.30;;;11.40;52.60;;;;;;5454472;26;19995;-72
2024/04/20 04:38:56;;;;;;;7.38;2.70;;;11.40;52.60;;;;;;5421831;26;20001;-72
2024/04/20 04:41:21;;;;;;;9.52;2.72;;;11.40;52.40;;;;;;5453946;26;20044;-72
2024/04/20 04:43:47;;;;;;;8.07;2.83;;;11.40;52.80;;;;;;5453556;26;19990;-71
2024/04/20 04:46:13;;;;;;;9.68;2.83;;;11.40;53.10;;;;;;5453431;26;20306;-71
2024/04/20 04:48:38;;;;;;;7.57;2.78;;;11.50;52.80;;;;;;5452836;26;20001;-72
2024/04/20 04:51:04;;;;;;;10.00;2.65;;;11.50;52.60;;;;;;5449057;26;20007;-71
2024/04/20 04:53:30;;;;;;;9.63;2.60;;;11.60;52.80;;;;;;5453898;26;20357;-72
2024/04/20 04:55:55;;;;;;;10.07;2.97;;;11.70;52.90;;;;;;5417049;26;20006;-72
2024/04/20 04:58:21;;;;;;;6.40;2.70;;;11.80;52.80;;;;;;5451928;26;20415;-72
2024/04/20 05:00:47;;;;;;;6.97;2.63;;;11.70;52.70;;;;;;5452020;26;20008;-71
2024/04/20 05:03:13;;;;;;;9.88;2.65;;;11.70;53.10;;;;;;5451868;26;20327;-73
2024/04/20 05:05:46;;;;;;;10.65;2.70;;;11.70;53.10;;;;;;5452777;26;20006;-72
2024/04/20 05:08:12;;;;;;;;;;;11.80;53.20;;;;;;5453199;26;19990;-71
2024/04/20 05:10:37;;;;;;;7.32;2.42;;;11.80;54.10;;;;;;5452207;26;19924;-71
2024/04/20 05:13:03;;;;;;;10.77;3.22;;;11.80;53.70;;;;;;5452496;26;20001;-69
2024/04/20 05:15:29;;;;;;;8.23;2.80;;;11.80;53.60;;;;;;5452516;26;19995;-72
2024/04/20 05:17:55;;;;;;;6.43;2.85;;;11.90;53.30;;;;;;5453394;26;19991;-71
2024/04/20 05:20:21;;;;;;;6.05;2.85;;;11.90;53.50;;;;;;5452777;26;20411;-72
2024/04/20 05:22:46;;;;;;;9.18;3.10;;;12.00;53.60;;;;;;5453049;26;20006;-72
2024/04/20 05:25:12;;;;;;;9.93;2.90;;;12.10;53.60;;;;;;5452281;26;19995;-71
2024/04/20 05:27:38;;;;;;;13.38;3.28;;;12.20;53.50;;;;;;5452082;26;19998;-72
2024/04/20 05:30:05;;;;;;;6.85;3.40;;;12.30;53.30;;;;;;5451781;26;20450;-72
2024/04/20 05:32:30;;;;;;;10.35;3.20;;;12.50;53.40;;;;;;5452015;26;20026;-72
2024/04/20 05:34:56;;;;;;;8.82;3.13;;;12.60;53.20;;;;;;5420297;26;20385;-72
2024/04/20 05:37:22;;;;;;;5.95;2.40;;;12.70;53.30;;;;;;5452217;26;20392;-72
2024/04/20 05:39:47;;;;;;;8.20;2.95;;;12.70;53.30;;;;;;5420573;26;19999;-72
2024/04/20 05:42:13;;;;;;;7.00;3.17;;;12.90;53.30;;;;;;5452252;26;19991;-72
2024/04/20 05:44:39;;;;;;;8.75;3.25;;;13.20;53.00;;;;;;5452283;26;20077;-73
2024/04/20 05:47:05;;;;;;;7.18;2.95;;;13.70;52.50;;;;;;5451778;26;20002;-73
2024/04/20 05:49:31;;;;;;;9.18;3.40;;;14.00;52.00;;;;;;5451902;26;19987;-72
2024/04/20 05:51:57;;;;;;;9.48;2.97;;;14.20;52.30;;;;;;5452015;26;20300;-72
2024/04/20 05:54:23;;;;;;;9.30;3.75;;;14.40;51.40;;;;;;5452025;26;19994;-71
2024/04/20 05:56:48;;;;;;;8.43;3.47;;;14.60;51.40;;;;;;5451621;26;20003;-72
2024/04/20 05:59:14;;;;;;;11.57;3.35;;;14.60;51.20;;;;;;5451264;26;20361;-70
2024/04/20 06:01:40;;;;;;;12.73;2.65;;;14.60;51.30;;;;;;5420260;26;19991;-72
2024/04/20 06:04:05;;;;;;;11.85;2.80;;;14.60;51.40;;;;;;5419916;26;20190;-73
2024/04/20 06:06:31;;;;;;;21.23;9.90;;;14.60;51.50;;;;;;5452450;26;20072;-71
2024/04/20 06:08:57;;;;;;;11.10;3.28;;;14.60;51.90;;;;;;5451946;26;19995;-72
2024/04/20 06:11:22;;;;;;;8.10;2.97;;;14.80;51.90;;;;;;5452411;26;20066;-71
2024/04/20 06:13:48;;;;;;;8.10;3.53;;;15.20;51.30;;;;;;5452149;26;20002;-72
2024/04/20 06:16:13;;;;;;;14.68;5.18;;;15.40;50.40;;;;;;5451564;26;19990;-71
2024/04/20 06:18:39;;;;;;;8.95;2.65;;;15.50;50.60;;;;;;5451467;26;19991;-72
2024/04/20 06:21:05;;;;;;;13.77;3.05;;;15.70;50.40;;;;;;5451259;26;19991;-73
2024/04/20 06:23:30;;;;;;;6.45;2.90;;;15.70;50.10;;;;;;5451452;26;19991;-73
2024/04/20 06:25:56;;;;;;;7.85;3.05;;;15.90;50.20;;;;;;5451235;26;19995;-72
2024/04/20 06:28:22;;;;;;;13.48;3.78;;;16.00;50.00;;;;;;5454372;26;19991;-72
2024/04/20 06:30:50;;;;;;;10.55;3.30;;;16.40;49.60;;;;;;5449436;26;19996;-72
2024/04/20 06:33:16;;;;;;;7.80;3.35;;;16.80;49.10;;;;;;5450162;26;19999;-76
2024/04/20 06:35:42;;;;;;;9.75;3.50;;;16.90;49.10;;;;;;5435135;26;20003;-79
2024/04/20 06:38:07;;;;;;;12.75;4.13;;;17.60;48.80;;;;;;5417349;26;20073;-75
2024/04/20 06:40:35;;;;;;;10.35;3.70;;;18.20;48.30;;;;;;5416539;26;20065;-74
2024/04/20 06:43:01;;;;;;;11.43;4.00;;;18.60;47.10;;;;;;5415260;26;20023;-74
2024/04/20 06:45:26;;;;;;;14.82;4.35;;;18.80;47.10;;;;;;5415603;26;20464;-75
2024/04/20 06:47:52;;;;;;;13.55;3.83;;;19.50;47.00;;;;;;5415637;26;19992;-74
2024/04/20 06:50:18;;;;;;;10.43;3.42;;;20.40;46.10;;;;;;5420908;26;19995;-77
2024/04/20 06:52:44;;;;;;;13.02;5.07;;;21.20;45.10;;;;;;5384005;26;19991;-78
2024/04/20 06:55:10;;;;;;;12.57;4.00;;;21.70;44.90;;;;;;5415833;26;19999;-78
2024/04/20 06:57:36;;;;;;;12.80;3.72;;;21.50;45.00;;;;;;5431595;26;20011;-74
2024/04/20 07:00:02;;;;;;;11.73;3.50;;;21.40;45.20;;;;;;5436217;26;19992;-76
2024/04/20 07:02:28;;;;;;;15.68;5.60;;;21.50;45.20;;;;;;5415186;26;19991;-80
2024/04/20 07:04:54;;;;;;;13.25;4.00;;;21.30;45.50;;;;;;5384228;26;20007;-77
2024/04/20 07:07:19;;;;;;;11.73;3.55;;;20.60;46.40;;;;;;5415337;26;20004;-79
2024/04/20 07:09:48;;;;;;;12.43;3.40;;;20.00;47.40;;;;;;5384261;26;20087;-77
2024/04/20 07:12:15;;;;;;;9.45;3.72;;;19.50;48.30;;;;;;5415610;26;20369;-75
2024/04/20 07:14:41;;;;;;;8.98;3.42;;;19.00;48.80;;;;;;5434854;26;20010;-76
2024/04/20 07:17:07;;;;;;;10.52;3.15;;;18.50;49.50;;;;;;5451420;26;20427;-75
2024/04/20 07:19:32;;;;;;;8.80;3.40;;;18.20;50.00;;;;;;5413448;26;20459;-72
2024/04/20 07:21:59;;;;;;;10.57;2.72;;;18.10;50.80;;;;;;5417482;26;20011;-74
2024/04/20 07:24:25;;;;;;;16.52;4.30;;;17.90;51.00;;;;;;5418894;26;19995;-77
2024/04/20 07:26:51;;;;;;;11.02;2.97;;;17.80;51.20;;;;;;5387212;26;20010;-76
2024/04/20 07:29:16;;;;;;;9.18;2.95;;;17.70;51.40;;;;;;5418701;26;20064;-76
2024/04/20 07:31:42;;;;;;;14.57;5.53;;;17.80;51.70;;;;;;5419279;26;19987;-78
2024/04/20 07:34:08;;;;;;;9.98;2.60;;;17.70;51.60;;;;;;5418581;26;20455;-79
2024/04/20 07:36:33;;;;;;;11.45;2.42;;;17.60;51.40;;;;;;5419143;26;19995;-74
2024/04/20 07:38:59;;;;;;;9.55;2.47;;;17.50;51.70;;;;;;5418106;26;19992;-74
2024/04/20 07:41:25;;;;;;;10.82;2.42;;;17.40;51.80;;;;;;5417773;26;20038;-76
2024/04/20 07:43:50;;;;;;;10.65;2.17;;;17.20;52.00;;;;;;5418438;26;20064;-74
2024/04/20 07:46:16;;;;;;;17.13;3.33;;;17.10;52.00;;;;;;5404967;26;19999;-75
2024/04/20 07:48:44;;;;;;;11.82;2.50;;;17.00;52.10;;;;;;5380816;26;20462;-73
2024/04/20 07:51:09;;;;;;;12.25;2.67;;;16.90;52.60;;;;;;5379152;26;20000;-77
2024/04/20 07:53:35;;;;;;;8.43;2.10;;;16.80;52.90;;;;;;5382614;26;20069;-74
2024/04/20 07:56:01;;;;;;;11.93;3.05;;;16.70;53.10;;;;;;5381502;26;20000;-75
2024/04/20 07:58:26;;;;;;;7.95;2.17;;;16.70;53.30;;;;;;5381075;26;19997;-74
2024/04/20 08:00:52;;;;;;;11.05;2.72;;;16.60;53.50;;;;;;5382310;26;20010;-74
2024/04/20 08:03:18;;;;;;;11.70;2.90;;;16.60;53.70;;;;;;5382687;26;20440;-73
2024/04/20 08:05:44;;;;;;;9.10;3.00;;;16.60;53.70;;;;;;5382597;26;19996;-74
2024/04/20 08:08:10;;;;;;;13.38;3.40;;;16.50;54.20;;;;;;5351780;26;19997;-76
2024/04/20 08:10:36;;;;;;;13.52;2.90;;;16.60;54.20;;;;;;5382400;26;20012;-72
2024/04/20 08:13:02;;;;;;;18.25;3.38;;;16.60;54.10;;;;;;5351142;26;20006;-75
2024/04/20 08:15:28;;;;;;;10.88;2.65;;;16.70;54.10;;;;;;5406704;26;20435;-75
2024/04/20 08:17:53;;;;;;;12.50;2.55;;;16.80;53.90;;;;;;5417762;26;20335;-74
2024/04/20 08:20:19;;;;;;;12.75;3.22;;;16.90;53.30;;;;;;5435028;26;20353;-74
2024/04/20 08:22:45;;;;;;;17.77;3.58;;;16.90;53.30;;;;;;5454553;26;20504;-76
2024/04/20 08:25:10;;;;;;;16.52;4.10;;;16.80;53.80;;;;;;5454465;26;19998;-74
2024/04/20 08:27:36;;;;;;;17.08;3.67;;;16.80;53.40;;;;;;5453969;26;20005;-74
2024/04/20 08:30:05;;;;;;;13.68;3.55;;;16.80;53.90;;;;;;5453804;26;20007;-74
2024/04/20 08:32:31;;;;;;;16.02;3.22;;;16.70;54.10;;;;;;5453814;26;20379;-74
2024/04/20 08:34:56;;;;;;;13.05;2.72;;;16.70;54.40;;;;;;5454065;26;20006;-74
2024/04/20 08:37:22;;;;;;;12.63;2.63;;;16.60;54.60;;;;;;5454745;26;19995;-74
2024/04/20 08:39:48;;;;;;;12.25;2.65;;;16.60;54.80;;;;;;5454987;26;19999;-74
2024/04/20 08:42:26;;;;;;;16.27;2.75;;;16.60;54.90;;;;;;5454517;26;20009;-71
2024/04/20 08:44:56;;;;;;;15.13;3.03;;;16.60;55.40;;;;;;5422432;26;20008;-75
2024/04/20 08:47:22;;;;;;;11.07;3.22;;;16.60;55.50;;;;;;5485455;26;19998;-76
2024/04/20 08:49:49;;;;;;;14.15;3.08;;;16.50;55.80;;;;;;5491981;26;20453;-76
2024/04/20 08:52:16;;;;;;;11.82;2.80;;;16.50;55.60;;;;;;5490668;26;20500;-75
2024/04/20 08:54:43;;;;;;;11.20;2.55;;;16.50;55.90;;;;;;5458956;26;20026;-76
2024/04/20 08:57:15;;;;;;;6.38;2.15;;;16.60;56.20;;;;;;5491433;26;20018;-76
2024/04/20 08:59:41;;;;;;;11.43;2.55;;;16.60;56.20;;;;;;5491744;26;19998;-75
2024/04/20 09:02:22;;;;;;;10.77;2.80;;;16.70;56.20;;;;;;5502533;26;20004;-75
2024/04/20 09:04:49;;;;;;;9.60;2.85;;;16.90;56.10;;;;;;5498147;26;20043;-76
2024/04/20 09:07:15;;;;;;;10.35;2.65;;;17.00;55.90;;;;;;5490326;26;20026;-74
2024/04/20 09:09:42;;;;;;;13.02;3.20;;;17.20;55.70;;;;;;5457221;26;20004;-75
2024/04/20 09:12:08;;;;;;;12.13;2.45;;;17.30;56.00;;;;;;5490202;26;20002;-74
2024/04/20 09:14:34;;;;;;;17.23;2.55;;;17.40;56.10;;;;;;5490120;26;20067;-74
2024/04/20 09:16:59;;;;;;;14.18;3.63;;;17.40;55.30;;;;;;5490651;26;19998;-74
2024/04/20 09:19:25;;;;;;;10.65;3.25;;;17.60;55.20;;;;;;5489531;26;20005;-75
2024/04/20 09:21:51;;;;;;;7.28;2.10;;;17.80;54.80;;;;;;5489918;26;19998;-76
2024/04/20 09:24:16;;;;;;;13.20;2.63;;;17.80;54.70;;;;;;5490156;26;19994;-75
2024/04/20 09:26:52;;;;;;;11.20;2.38;;;17.90;54.60;;;;;;5490795;26;20009;-76
2024/04/20 09:29:20;;;;;;;7.18;2.15;;;18.00;54.00;;;;;;5490950;26;20012;-74
2024/04/20 09:31:53;;;;;;;9.48;2.08;;;18.00;54.30;;;;;;5489646;26;20005;-75
2024/04/20 09:34:25;;;;;;;6.38;2.00;;;17.90;54.30;;;;;;5489729;26;20067;-75
2024/04/20 09:36:54;;;;;;;10.80;2.35;;;17.70;55.30;;;;;;5489032;26;20009;-76
2024/04/20 09:39:20;;;;;;;10.10;2.63;;;17.60;55.50;;;;;;5489345;26;20078;-75
2024/04/20 09:41:54;;;;;;;7.88;2.97;;;17.60;55.30;;;;;;5489610;26;20441;-75
2024/04/20 09:44:20;;;;;;;6.93;2.17;;;17.60;55.60;;;;;;5488693;26;20010;-75
2024/04/20 09:46:47;;;;;;;6.10;1.85;;;17.70;56.00;;;;;;5457448;26;20072;-75
2024/04/20 09:49:15;;;;;;;8.38;2.10;;;17.90;55.30;;;;;;5489206;26;19994;-77
2024/04/20 09:51:46;;;;;;;9.35;2.00;;;18.00;54.60;;;;;;5489690;26;20001;-75
2024/04/20 09:54:19;;;;;;;6.05;2.08;;;18.10;54.10;;;;;;5489927;26;20009;-76
2024/04/20 09:56:47;;;;;;;10.25;1.65;;;18.20;54.10;;;;;;5488941;26;20026;-75
2024/04/20 09:59:13;;;;;;;7.22;1.73;;;18.40;54.00;;;;;;5456852;26;20326;-75
2024/04/20 10:01:39;;;;;;;6.85;2.15;;;18.50;53.60;;;;;;5489394;26;20438;-76
2024/04/20 10:04:06;;;;;;;9.90;2.55;;;18.70;53.50;;;;;;5489396;26;19998;-76
2024/04/20 10:06:32;;;;;;;5.55;1.52;;;18.80;53.20;;;;;;5489434;26;20009;-74
2024/04/20 10:08:59;;;;;;;7.55;1.95;;;18.90;53.40;;;;;;5489071;26;20459;-74
2024/04/20 10:11:27;;;;;;;6.30;2.70;;;18.90;53.10;;;;;;5456467;26;19994;-74
2024/04/20 10:13:55;;;;;;;5.32;1.90;;;18.90;53.10;;;;;;5488432;26;20006;-76
2024/04/20 10:16:20;;;;;;;7.95;1.83;;;18.90;53.10;;;;;;5488492;26;20008;-76
2024/04/20 10:18:47;;;;;;;8.38;1.80;;;18.90;52.90;;;;;;5488852;26;19998;-74
2024/04/20 10:21:14;;;;;;;10.32;1.73;;;18.90;53.00;;;;;;5489250;26;20150;-74
2024/04/20 10:23:41;;;;;;;8.07;1.80;;;18.90;53.10;;;;;;5489130;26;20371;-75
2024/04/20 10:26:07;;;;;;;5.68;1.90;;;19.00;53.00;;;;;;5486973;26;19998;-74
2024/04/20 10:28:35;;;;;;;7.63;2.08;;;19.20;53.20;;;;;;5488275;26;20430;-75
2024/04/20 10:31:02;;;;;;;7.28;2.00;;;19.30;53.20;;;;;;5489030;26;19998;-75
2024/04/20 10:33:32;;;;;;;9.68;1.83;;;19.40;53.10;;;;;;5456417;26;20022;-75
2024/04/20 10:36:01;;;;;;;7.25;1.70;;;19.50;52.90;;;;;;5488625;26;20030;-75
2024/04/20 10:38:29;;;;;;;8.55;1.73;;;19.70;52.90;;;;;;5488010;26;19999;-75
2024/04/20 10:40:54;;;;;;;5.68;1.98;;;19.60;52.90;;;;;;5488628;26;19994;-76
2024/04/20 10:43:25;;;;;;;8.82;1.88;;;19.60;52.80;;;;;;5488520;26;20005;-75
2024/04/20 10:46:10;;;;;;;9.68;2.20;;;19.70;52.80;;;;;;5488187;26;20009;-75
2024/04/20 10:48:40;;;;;;;10.57;2.03;;;19.90;52.60;;;;;;5456509;26;20002;-74
2024/04/20 10:51:08;;;;;;;18.20;2.72;;;20.00;52.30;;;;;;5488488;26;20005;-75
2024/04/20 10:53:35;;;;;;;8.93;2.22;;;20.10;52.30;;;;;;5488106;26;20006;-75
2024/04/20 10:56:01;;;;;;;8.57;2.25;;;20.30;52.20;;;;;;5489285;26;20146;-75
2024/04/20 10:58:27;;;;;;;8.45;2.13;;;20.40;52.20;;;;;;5491802;26;20005;-76
2024/04/20 11:01:03;;;;;;;12.88;3.10;;;20.30;52.10;;;;;;5491857;26;20078;-74
2024/04/20 11:03:29;;;;;;;8.32;2.83;;;20.20;52.00;;;;;;5490314;26;20036;-74
2024/04/20 11:05:56;;;;;;;8.70;2.10;;;20.20;52.10;;;;;;5491713;26;19998;-76
2024/04/20 11:08:25;;;;;;;13.75;2.30;;;20.20;52.00;;;;;;5491373;26;19998;-74
2024/04/20 11:10:55;;;;;;;10.65;2.63;;;20.20;52.10;;;;;;5460355;26;20002;-75
2024/04/20 11:13:21;;;;;;;8.20;2.10;;;20.10;52.20;;;;;;5491899;26;19998;-75
2024/04/20 11:15:48;;;;;;;6.38;2.20;;;20.10;52.30;;;;;;5491523;26;20000;-75
2024/04/20 11:18:14;;;;;;;8.77;1.85;;;20.20;52.30;;;;;;5491490;26;19994;-76
2024/04/20 11:20:41;;;;;;;10.23;1.95;;;20.30;52.30;;;;;;5491694;26;20045;-75
2024/04/20 11:23:07;;;;;;;7.82;2.72;;;20.30;52.00;;;;;;5491610;26;19998;-75
2024/04/20 11:25:33;;;;;;;9.20;2.28;;;20.40;52.20;;;;;;5492454;26;20067;-74
2024/04/20 11:28:00;;;;;;;7.03;1.77;;;20.40;52.20;;;;;;5491659;26;20009;-73
2024/04/20 11:30:26;;;;;;;6.30;1.88;;;20.40;52.20;;;;;;5495044;26;20006;-75
2024/04/20 11:32:57;;;;;;;12.30;2.25;;;20.50;52.20;;;;;;5502458;26;19998;-76
2024/04/20 11:35:23;;;;;;;7.22;2.13;;;20.60;51.90;;;;;;5464307;26;20498;-74
2024/04/20 11:37:48;;;;;;;8.88;2.13;;;20.70;52.00;;;;;;5492256;26;20006;-74
2024/04/20 11:40:15;;;;;;;11.75;2.30;;;20.80;51.90;;;;;;5491274;26;20006;-76
2024/04/20 11:42:44;;;;;;;7.75;1.80;;;20.80;51.70;;;;;;5491243;26;20002;-74
2024/04/20 11:45:15;;;;;;;6.82;2.35;;;20.80;51.80;;;;;;5491319;26;20034;-75
2024/04/20 11:47:41;;;;;;;5.93;1.60;;;20.80;52.00;;;;;;5491365;26;20014;-74
2024/04/20 11:50:07;;;;;;;8.05;1.90;;;20.70;51.90;;;;;;5491348;26;20040;-76
2024/04/20 11:55:18;;;;;;;7.68;2.70;;;20.60;52.30;;;;;;5491268;26;20142;-76
2024/04/20 11:57:43;;;;;;;8.65;1.80;;;20.40;52.50;;;;;;5490152;26;20002;-75
2024/04/20 12:00:12;;;;;;;10.43;2.85;;;20.50;52.80;;;;;;5490362;26;20009;-76
2024/04/20 12:02:39;;;;;;;6.53;2.13;;;20.60;53.00;;;;;;5490720;26;19994;-75
2024/04/20 12:05:05;;;;;;;8.77;2.55;;;20.80;52.70;;;;;;5490600;26;20334;-75
2024/04/20 12:07:33;;;;;;;9.38;2.45;;;20.90;52.50;;;;;;5489687;26;19994;-75
2024/04/20 12:09:59;;;;;;;16.65;2.92;;;21.00;52.50;;;;;;5490669;26;20044;-74
2024/04/20 12:12:24;;;;;;;11.68;3.28;;;21.00;52.60;;;;;;5490346;26;20426;-75
2024/04/20 12:14:50;;;;;;;10.40;2.92;;;21.00;52.70;;;;;;5490409;26;20004;-74
2024/04/20 12:17:16;;;;;;;10.15;2.47;;;21.00;52.90;;;;;;5490251;26;20013;-75
2024/04/20 12:19:46;;;;;;;13.48;2.72;;;21.00;52.90;;;;;;5490228;26;20073;-73
2024/04/20 12:22:13;;;;;;;10.80;3.00;;;20.90;52.90;;;;;;5489860;26;20070;-75
2024/04/20 12:24:39;;;;;;;13.15;3.30;;;20.90;53.10;;;;;;5490078;26;20294;-74
2024/04/20 12:27:05;;;;;;;16.58;3.72;;;20.80;53.10;;;;;;5490835;26;19999;-74
2024/04/20 12:29:31;;;;;;;17.25;4.28;;;20.90;53.20;;;;;;5489933;26;20421;-75
2024/04/20 12:31:56;;;;;;;13.23;3.30;;;21.00;53.30;;;;;;5489844;26;19998;-75
2024/04/20 12:34:22;;;;;;;9.75;2.90;;;21.20;53.10;;;;;;5457631;26;20009;-75
2024/04/20 12:36:50;;;;;;;15.15;3.05;;;21.30;53.10;;;;;;5489916;26;20060;-74
2024/04/20 12:39:16;;;;;;;13.63;3.25;;;21.60;52.90;;;;;;5490639;26;20030;-73
2024/04/20 12:41:42;;;;;;;11.65;3.00;;;21.80;52.60;;;;;;5489525;26;19998;-75
2024/04/20 12:44:09;;;;;;;13.95;3.63;;;22.10;52.20;;;;;;5489558;26;20005;-75
2024/04/20 12:46:35;;;;;;;13.75;3.25;;;22.20;51.80;;;;;;5489810;26;19997;-75
2024/04/20 12:49:02;;;;;;;9.82;2.50;;;22.30;52.00;;;;;;5489817;26;19994;-73
2024/04/20 12:51:28;;;;;;;11.55;2.50;;;22.20;51.70;;;;;;5489443;26;20345;-75
2024/04/20 12:53:54;;;;;;;15.45;3.33;;;22.10;51.80;;;;;;5490395;26;19994;-75
2024/04/20 12:56:20;;;;;;;13.55;3.60;;;22.00;52.10;;;;;;5489550;26;19994;-74
2024/04/20 12:58:45;;;;;;;13.13;2.80;;;21.80;52.00;;;;;;5488962;26;20005;-73
2024/04/20 13:01:11;;;;;;;13.27;3.03;;;21.80;51.90;;;;;;5489138;26;20006;-75
2024/04/20 16:51:51;;;;;;;4.07;1.50;;;16.90;59.90;;;;;;5486336;26;20381;-76
2024/04/20 16:54:17;;;;;;;6.53;2.10;;;16.80;60.30;;;;;;5415467;26;20007;-74
2024/04/20 16:56:43;;;;;;;4.70;2.15;;;16.80;60.50;;;;;;5416691;26;20024;-74
2024/04/20 16:59:08;;;;;;;5.18;2.20;;;16.80;60.70;;;;;;5417845;26;20423;-75
2024/04/20 17:01:34;;;;;;;9.82;2.60;;;16.80;61.20;;;;;;5418524;26;20072;-75
2024/04/20 17:04:00;;;;;;;6.28;2.75;;;16.80;60.50;;;;;;5417122;26;20062;-75
2024/04/20 17:06:26;;;;;;;4.85;1.45;;;16.70;60.40;;;;;;5417280;26;20068;-75
2024/04/20 17:08:52;;;;;;;5.70;2.28;;;16.70;60.40;;;;;;5417966;26;19988;-76
2024/04/20 17:11:17;;;;;;;4.53;2.10;;;16.70;60.30;;;;;;5417627;26;20002;-74
2024/04/20 17:13:43;;;;;;;5.80;2.22;;;16.60;60.30;;;;;;5417882;26;20003;-73
2024/04/20 17:16:12;;;;;;;5.85;2.28;;;16.60;60.60;;;;;;5417812;26;19991;-75
2024/04/20 17:18:40;;;;;;;6.07;2.30;;;16.60;60.60;;;;;;5417488;26;20003;-75
2024/04/20 17:21:08;;;;;;;8.00;3.00;;;16.50;60.90;;;;;;5417596;26;19996;-75
2024/04/20 17:23:35;;;;;;;4.05;1.80;;;16.40;60.60;;;;;;5417508;26;20508;-75
2024/04/20 17:26:11;;;;;;;5.68;2.00;;;16.30;60.70;;;;;;5417748;26;20010;-75
2024/04/20 17:28:37;;;;;;;6.53;2.00;;;16.20;60.70;;;;;;5386344;26;20072;-76
2024/04/20 17:31:13;;;;;;;4.90;2.13;;;16.10;60.90;;;;;;5385998;26;20007;-75
2024/04/20 17:33:39;;;;;;;4.90;2.03;;;16.00;61.20;;;;;;5417569;26;20531;-74
2024/04/20 17:36:06;;;;;;;7.25;2.30;;;15.90;61.40;;;;;;5417842;26;20003;-76
2024/04/20 17:38:31;;;;;;;8.10;2.38;;;15.90;61.70;;;;;;5417566;26;20020;-75
2024/04/20 17:40:57;;;;;;;5.40;2.35;;;15.90;62.10;;;;;;5385948;26;20003;-74
2024/04/20 17:43:23;;;;;;;8.13;2.58;;;15.80;61.90;;;;;;5417509;26;20082;-76
2024/04/20 17:45:56;;;;;;;7.07;2.53;;;15.80;62.20;;;;;;5385799;26;19999;-75
2024/04/20 17:48:23;;;;;;;6.20;2.15;;;15.80;61.80;;;;;;5417646;26;20007;-75
2024/04/20 17:51:08;;;;;;;5.95;1.80;;;15.90;61.80;;;;;;5417019;26;20080;-73